sensor_id;sensor_type;location;lat;lon;timestamp;P1;durP1;ratioP1;P2;durP2;ratioP2
39750;SDS011;37579;51.074;17.004;2023-08-20T00:00:14;3.08;;;2.88;;
39750;SDS011;37579;51.074;17.004;2023-08-20T00:02:41;3.08;;;2.78;;
39750;SDS011;37579;51.074;17.004;2023-08-20T00:05:08;3.00;;;2.80;;
39750;SDS011;37579;51.074;17.004;2023-08-20T00:07:35;2.75;;;2.55;;
39750;SDS011;37579;51.074;17.004;2023-08-20T00:10:01;3.10;;;2.90;;
39750;SDS011;37579;51.074;17.004;2023-08-20T00:12:29;3.00;;;2.80;;
39750;SDS011;37579;51.074;17.004;2023-08-20T00:14:59;2.85;;;2.65;;
39750;SDS011;37579;51.074;17.004;2023-08-20T00:17:35;2.90;;;2.70;;
39750;SDS011;37579;51.074;17.004;2023-08-20T00:20:03;2.90;;;2.70;;
39750;SDS011;37579;51.074;17.004;2023-08-20T00:22:35;2.95;;;2.75;;
39750;SDS011;37579;51.074;17.004;2023-08-20T00:25:02;3.25;;;3.00;;
39750;SDS011;37579;51.074;17.004;2023-08-20T00:27:30;2.97;;;2.78;;
39750;SDS011;37579;51.074;17.004;2023-08-20T00:29:57;3.33;;;3.13;;
39750;SDS011;37579;51.074;17.004;2023-08-20T00:32:23;2.80;;;2.60;;
39750;SDS011;37579;51.074;17.004;2023-08-20T00:34:49;3.08;;;2.88;;
39750;SDS011;37579;51.074;17.004;2023-08-20T00:37:15;2.78;;;2.58;;
39750;SDS011;37579;51.074;17.004;2023-08-20T00:39:42;3.20;;;2.90;;
39750;SDS011;37579;51.074;17.004;2023-08-20T00:42:08;2.90;;;2.70;;
39750;SDS011;37579;51.074;17.004;2023-08-20T00:44:34;3.17;;;2.97;;
39750;SDS011;37579;51.074;17.004;2023-08-20T00:47:01;2.92;;;2.72;;
39750;SDS011;37579;51.074;17.004;2023-08-20T00:49:29;3.13;;;2.92;;
39750;SDS011;37579;51.074;17.004;2023-08-20T00:51:55;3.08;;;2.88;;
39750;SDS011;37579;51.074;17.004;2023-08-20T00:54:22;3.10;;;2.90;;
39750;SDS011;37579;51.074;17.004;2023-08-20T00:56:49;2.70;;;2.50;;
39750;SDS011;37579;51.074;17.004;2023-08-20T00:59:16;2.88;;;2.67;;
39750;SDS011;37579;51.074;17.004;2023-08-20T01:01:43;2.60;;;2.40;;
39750;SDS011;37579;51.074;17.004;2023-08-20T01:04:09;2.75;;;2.55;;
39750;SDS011;37579;51.074;17.004;2023-08-20T01:12:17;2.95;;;2.75;;
39750;SDS011;37579;51.074;17.004;2023-08-20T01:14:46;2.78;;;2.58;;
39750;SDS011;37579;51.074;17.004;2023-08-20T01:17:12;2.55;;;2.35;;
39750;SDS011;37579;51.074;17.004;2023-08-20T01:19:39;2.83;;;2.63;;
39750;SDS011;37579;51.074;17.004;2023-08-20T01:30:14;3.00;;;2.80;;
39750;SDS011;37579;51.074;17.004;2023-08-20T01:32:40;2.95;;;2.75;;
39750;SDS011;37579;51.074;17.004;2023-08-20T01:35:13;3.05;;;2.78;;
39750;SDS011;37579;51.074;17.004;2023-08-20T01:37:41;2.78;;;2.58;;
39750;SDS011;37579;51.074;17.004;2023-08-20T01:40:08;2.50;;;2.30;;
39750;SDS011;37579;51.074;17.004;2023-08-20T01:42:37;2.97;;;2.78;;
39750;SDS011;37579;51.074;17.004;2023-08-20T01:45:03;2.85;;;2.65;;
39750;SDS011;37579;51.074;17.004;2023-08-20T01:47:31;3.03;;;2.83;;
39750;SDS011;37579;51.074;17.004;2023-08-20T01:49:59;2.90;;;2.70;;
39750;SDS011;37579;51.074;17.004;2023-08-20T01:52:25;2.70;;;2.50;;
39750;SDS011;37579;51.074;17.004;2023-08-20T01:54:51;2.80;;;2.60;;
39750;SDS011;37579;51.074;17.004;2023-08-20T01:57:20;3.42;;;3.13;;
39750;SDS011;37579;51.074;17.004;2023-08-20T01:59:47;3.08;;;2.88;;
39750;SDS011;37579;51.074;17.004;2023-08-20T02:02:13;3.00;;;2.70;;
39750;SDS011;37579;51.074;17.004;2023-08-20T02:04:39;3.40;;;3.13;;
39750;SDS011;37579;51.074;17.004;2023-08-20T02:07:05;2.70;;;2.50;;
39750;SDS011;37579;51.074;17.004;2023-08-20T02:09:31;2.83;;;2.63;;
39750;SDS011;37579;51.074;17.004;2023-08-20T02:11:57;2.92;;;2.72;;
39750;SDS011;37579;51.074;17.004;2023-08-20T02:14:22;2.92;;;2.72;;
39750;SDS011;37579;51.074;17.004;2023-08-20T02:16:48;2.75;;;2.55;;
39750;SDS011;37579;51.074;17.004;2023-08-20T02:19:14;2.90;;;2.70;;
39750;SDS011;37579;51.074;17.004;2023-08-20T02:21:40;2.72;;;2.53;;
39750;SDS011;37579;51.074;17.004;2023-08-20T02:24:06;2.80;;;2.60;;
39750;SDS011;37579;51.074;17.004;2023-08-20T02:26:32;2.55;;;2.35;;
39750;SDS011;37579;51.074;17.004;2023-08-20T02:28:58;2.92;;;2.72;;
39750;SDS011;37579;51.074;17.004;2023-08-20T02:31:23;2.53;;;2.33;;
39750;SDS011;37579;51.074;17.004;2023-08-20T02:33:49;3.05;;;2.85;;
39750;SDS011;37579;51.074;17.004;2023-08-20T02:36:15;3.03;;;2.83;;
39750;SDS011;37579;51.074;17.004;2023-08-20T02:38:41;2.90;;;2.70;;
39750;SDS011;37579;51.074;17.004;2023-08-20T02:41:07;2.85;;;2.65;;
39750;SDS011;37579;51.074;17.004;2023-08-20T02:43:33;2.80;;;2.60;;
39750;SDS011;37579;51.074;17.004;2023-08-20T02:46:00;2.78;;;2.58;;
39750;SDS011;37579;51.074;17.004;2023-08-20T02:48:26;2.60;;;2.40;;
39750;SDS011;37579;51.074;17.004;2023-08-20T02:50:53;2.72;;;2.53;;
39750;SDS011;37579;51.074;17.004;2023-08-20T02:53:19;2.83;;;2.63;;
39750;SDS011;37579;51.074;17.004;2023-08-20T02:55:46;2.95;;;2.75;;
39750;SDS011;37579;51.074;17.004;2023-08-20T02:58:11;2.70;;;2.50;;
39750;SDS011;37579;51.074;17.004;2023-08-20T03:00:37;2.70;;;2.50;;
39750;SDS011;37579;51.074;17.004;2023-08-20T03:03:04;2.63;;;2.42;;
39750;SDS011;37579;51.074;17.004;2023-08-20T03:05:33;2.67;;;2.47;;
39750;SDS011;37579;51.074;17.004;2023-08-20T03:08:00;2.60;;;2.40;;
39750;SDS011;37579;51.074;17.004;2023-08-20T03:10:29;2.70;;;2.50;;
39750;SDS011;37579;51.074;17.004;2023-08-20T03:12:57;2.60;;;2.40;;
39750;SDS011;37579;51.074;17.004;2023-08-20T03:15:24;2.90;;;2.70;;
39750;SDS011;37579;51.074;17.004;2023-08-20T03:17:49;2.78;;;2.58;;
39750;SDS011;37579;51.074;17.004;2023-08-20T03:20:15;2.70;;;2.50;;
39750;SDS011;37579;51.074;17.004;2023-08-20T03:22:41;2.88;;;2.67;;
39750;SDS011;37579;51.074;17.004;2023-08-20T03:25:07;2.95;;;2.75;;
39750;SDS011;37579;51.074;17.004;2023-08-20T03:27:33;2.80;;;2.60;;
39750;SDS011;37579;51.074;17.004;2023-08-20T03:29:59;2.95;;;2.75;;
39750;SDS011;37579;51.074;17.004;2023-08-20T03:32:26;2.72;;;2.53;;
39750;SDS011;37579;51.074;17.004;2023-08-20T03:34:51;2.58;;;2.38;;
39750;SDS011;37579;51.074;17.004;2023-08-20T03:37:19;2.85;;;2.65;;
39750;SDS011;37579;51.074;17.004;2023-08-20T03:39:45;3.03;;;2.83;;
39750;SDS011;37579;51.074;17.004;2023-08-20T03:42:11;2.80;;;2.60;;
39750;SDS011;37579;51.074;17.004;2023-08-20T03:44:36;2.90;;;2.70;;
39750;SDS011;37579;51.074;17.004;2023-08-20T03:47:02;2.60;;;2.40;;
39750;SDS011;37579;51.074;17.004;2023-08-20T03:49:28;2.90;;;2.70;;
39750;SDS011;37579;51.074;17.004;2023-08-20T03:51:54;3.08;;;2.88;;
39750;SDS011;37579;51.074;17.004;2023-08-20T03:54:19;2.75;;;2.55;;
39750;SDS011;37579;51.074;17.004;2023-08-20T03:56:45;3.00;;;2.80;;
39750;SDS011;37579;51.074;17.004;2023-08-20T03:59:11;2.90;;;2.70;;
39750;SDS011;37579;51.074;17.004;2023-08-20T04:01:37;2.88;;;2.67;;
39750;SDS011;37579;51.074;17.004;2023-08-20T04:04:03;2.55;;;2.35;;
39750;SDS011;37579;51.074;17.004;2023-08-20T04:06:29;2.65;;;2.45;;
39750;SDS011;37579;51.074;17.004;2023-08-20T04:08:55;2.78;;;2.55;;
39750;SDS011;37579;51.074;17.004;2023-08-20T04:11:21;2.78;;;2.58;;
39750;SDS011;37579;51.074;17.004;2023-08-20T04:13:47;2.47;;;2.28;;
39750;SDS011;37579;51.074;17.004;2023-08-20T04:16:13;2.63;;;2.42;;
39750;SDS011;37579;51.074;17.004;2023-08-20T04:18:39;2.78;;;2.58;;
39750;SDS011;37579;51.074;17.004;2023-08-20T04:21:05;2.78;;;2.58;;
39750;SDS011;37579;51.074;17.004;2023-08-20T04:23:33;3.05;;;2.85;;
39750;SDS011;37579;51.074;17.004;2023-08-20T04:25:59;2.60;;;2.40;;
39750;SDS011;37579;51.074;17.004;2023-08-20T04:28:24;2.67;;;2.47;;
39750;SDS011;37579;51.074;17.004;2023-08-20T04:30:53;2.65;;;2.45;;
39750;SDS011;37579;51.074;17.004;2023-08-20T04:33:21;3.15;;;2.95;;
39750;SDS011;37579;51.074;17.004;2023-08-20T04:35:48;2.60;;;2.40;;
39750;SDS011;37579;51.074;17.004;2023-08-20T04:38:16;2.85;;;2.65;;
39750;SDS011;37579;51.074;17.004;2023-08-20T04:40:42;2.58;;;2.38;;
39750;SDS011;37579;51.074;17.004;2023-08-20T04:43:12;2.83;;;2.63;;
39750;SDS011;37579;51.074;17.004;2023-08-20T04:45:37;2.72;;;2.53;;
39750;SDS011;37579;51.074;17.004;2023-08-20T04:48:03;2.83;;;2.63;;
39750;SDS011;37579;51.074;17.004;2023-08-20T04:50:29;2.70;;;2.50;;
39750;SDS011;37579;51.074;17.004;2023-08-20T04:52:56;2.78;;;2.58;;
39750;SDS011;37579;51.074;17.004;2023-08-20T04:55:24;2.75;;;2.55;;
39750;SDS011;37579;51.074;17.004;2023-08-20T04:57:50;2.78;;;2.58;;
39750;SDS011;37579;51.074;17.004;2023-08-20T05:00:16;2.60;;;2.40;;
39750;SDS011;37579;51.074;17.004;2023-08-20T05:02:47;2.70;;;2.50;;
39750;SDS011;37579;51.074;17.004;2023-08-20T05:05:16;2.42;;;2.22;;
39750;SDS011;37579;51.074;17.004;2023-08-20T05:07:43;2.70;;;2.50;;
39750;SDS011;37579;51.074;17.004;2023-08-20T05:10:09;2.90;;;2.70;;
39750;SDS011;37579;51.074;17.004;2023-08-20T05:12:36;2.83;;;2.63;;
39750;SDS011;37579;51.074;17.004;2023-08-20T05:15:02;2.60;;;2.40;;
39750;SDS011;37579;51.074;17.004;2023-08-20T05:17:28;2.72;;;2.53;;
39750;SDS011;37579;51.074;17.004;2023-08-20T05:19:53;2.40;;;2.20;;
39750;SDS011;37579;51.074;17.004;2023-08-20T05:22:19;2.65;;;2.45;;
39750;SDS011;37579;51.074;17.004;2023-08-20T05:24:45;2.15;;;2.05;;
39750;SDS011;37579;51.074;17.004;2023-08-20T05:27:14;2.50;;;2.30;;
39750;SDS011;37579;51.074;17.004;2023-08-20T05:29:43;2.75;;;2.55;;
39750;SDS011;37579;51.074;17.004;2023-08-20T05:32:09;2.90;;;2.70;;
39750;SDS011;37579;51.074;17.004;2023-08-20T05:34:36;2.90;;;2.70;;
39750;SDS011;37579;51.074;17.004;2023-08-20T05:37:02;2.50;;;2.30;;
39750;SDS011;37579;51.074;17.004;2023-08-20T05:39:36;2.72;;;2.53;;
39750;SDS011;37579;51.074;17.004;2023-08-20T05:42:03;2.88;;;2.67;;
39750;SDS011;37579;51.074;17.004;2023-08-20T05:44:29;2.80;;;2.60;;
39750;SDS011;37579;51.074;17.004;2023-08-20T05:46:56;2.58;;;2.38;;
39750;SDS011;37579;51.074;17.004;2023-08-20T05:49:24;2.85;;;2.65;;
39750;SDS011;37579;51.074;17.004;2023-08-20T05:51:50;2.33;;;2.13;;
39750;SDS011;37579;51.074;17.004;2023-08-20T05:54:16;2.50;;;2.30;;
39750;SDS011;37579;51.074;17.004;2023-08-20T05:56:42;2.70;;;2.50;;
39750;SDS011;37579;51.074;17.004;2023-08-20T05:59:08;2.15;;;2.05;;
39750;SDS011;37579;51.074;17.004;2023-08-20T06:01:33;2.60;;;2.40;;
39750;SDS011;37579;51.074;17.004;2023-08-20T06:03:59;2.65;;;2.45;;
39750;SDS011;37579;51.074;17.004;2023-08-20T06:06:26;2.53;;;2.33;;
39750;SDS011;37579;51.074;17.004;2023-08-20T06:08:52;2.67;;;2.47;;
39750;SDS011;37579;51.074;17.004;2023-08-20T06:11:19;2.42;;;2.22;;
39750;SDS011;37579;51.074;17.004;2023-08-20T06:13:45;2.58;;;2.38;;
39750;SDS011;37579;51.074;17.004;2023-08-20T06:16:11;2.75;;;2.55;;
39750;SDS011;37579;51.074;17.004;2023-08-20T06:18:36;2.55;;;2.35;;
39750;SDS011;37579;51.074;17.004;2023-08-20T06:21:02;2.42;;;2.22;;
39750;SDS011;37579;51.074;17.004;2023-08-20T06:23:29;2.70;;;2.50;;
39750;SDS011;37579;51.074;17.004;2023-08-20T06:25:54;2.70;;;2.50;;
39750;SDS011;37579;51.074;17.004;2023-08-20T06:28:20;2.45;;;2.25;;
39750;SDS011;37579;51.074;17.004;2023-08-20T06:30:46;2.17;;;2.08;;
39750;SDS011;37579;51.074;17.004;2023-08-20T06:33:12;2.67;;;2.47;;
39750;SDS011;37579;51.074;17.004;2023-08-20T06:35:38;2.50;;;2.30;;
39750;SDS011;37579;51.074;17.004;2023-08-20T06:38:06;2.55;;;2.35;;
39750;SDS011;37579;51.074;17.004;2023-08-20T06:40:32;2.50;;;2.30;;
39750;SDS011;37579;51.074;17.004;2023-08-20T06:42:58;2.58;;;2.38;;
39750;SDS011;37579;51.074;17.004;2023-08-20T06:45:24;2.60;;;2.40;;
39750;SDS011;37579;51.074;17.004;2023-08-20T06:47:50;2.00;;;1.90;;
39750;SDS011;37579;51.074;17.004;2023-08-20T06:50:15;2.50;;;2.30;;
39750;SDS011;37579;51.074;17.004;2023-08-20T06:52:42;2.60;;;2.40;;
39750;SDS011;37579;51.074;17.004;2023-08-20T06:55:08;2.70;;;2.50;;
39750;SDS011;37579;51.074;17.004;2023-08-20T06:57:33;1.92;;;1.83;;
39750;SDS011;37579;51.074;17.004;2023-08-20T06:59:59;2.20;;;2.10;;
39750;SDS011;37579;51.074;17.004;2023-08-20T07:02:25;2.45;;;2.25;;
39750;SDS011;37579;51.074;17.004;2023-08-20T07:04:51;2.78;;;2.58;;
39750;SDS011;37579;51.074;17.004;2023-08-20T07:07:17;2.50;;;2.30;;
39750;SDS011;37579;51.074;17.004;2023-08-20T07:09:42;2.67;;;2.47;;
39750;SDS011;37579;51.074;17.004;2023-08-20T07:12:08;2.45;;;2.25;;
39750;SDS011;37579;51.074;17.004;2023-08-20T07:14:34;2.17;;;2.08;;
39750;SDS011;37579;51.074;17.004;2023-08-20T07:17:00;2.35;;;2.15;;
39750;SDS011;37579;51.074;17.004;2023-08-20T07:19:28;2.25;;;2.05;;
39750;SDS011;37579;51.074;17.004;2023-08-20T07:21:54;2.30;;;2.10;;
39750;SDS011;37579;51.074;17.004;2023-08-20T07:24:20;2.47;;;2.28;;
39750;SDS011;37579;51.074;17.004;2023-08-20T07:26:50;2.72;;;2.53;;
39750;SDS011;37579;51.074;17.004;2023-08-20T07:29:17;2.28;;;2.17;;
39750;SDS011;37579;51.074;17.004;2023-08-20T07:31:43;2.50;;;2.30;;
39750;SDS011;37579;51.074;17.004;2023-08-20T07:34:08;2.55;;;2.35;;
39750;SDS011;37579;51.074;17.004;2023-08-20T07:36:34;2.72;;;2.53;;
39750;SDS011;37579;51.074;17.004;2023-08-20T07:39:00;2.35;;;2.15;;
39750;SDS011;37579;51.074;17.004;2023-08-20T07:41:26;2.38;;;2.17;;
39750;SDS011;37579;51.074;17.004;2023-08-20T07:43:52;2.55;;;2.35;;
39750;SDS011;37579;51.074;17.004;2023-08-20T07:46:18;2.42;;;2.25;;
39750;SDS011;37579;51.074;17.004;2023-08-20T07:48:43;2.47;;;2.28;;
39750;SDS011;37579;51.074;17.004;2023-08-20T07:51:10;2.33;;;2.20;;
39750;SDS011;37579;51.074;17.004;2023-08-20T07:53:35;2.50;;;2.30;;
39750;SDS011;37579;51.074;17.004;2023-08-20T07:56:01;2.42;;;2.22;;
39750;SDS011;37579;51.074;17.004;2023-08-20T07:58:27;2.83;;;2.63;;
39750;SDS011;37579;51.074;17.004;2023-08-20T08:00:53;2.50;;;2.30;;
39750;SDS011;37579;51.074;17.004;2023-08-20T08:03:20;2.30;;;2.10;;
39750;SDS011;37579;51.074;17.004;2023-08-20T08:05:51;2.40;;;2.20;;
39750;SDS011;37579;51.074;17.004;2023-08-20T08:08:19;2.42;;;2.22;;
39750;SDS011;37579;51.074;17.004;2023-08-20T08:10:45;2.33;;;2.13;;
39750;SDS011;37579;51.074;17.004;2023-08-20T08:13:12;2.22;;;2.13;;
39750;SDS011;37579;51.074;17.004;2023-08-20T08:15:39;2.50;;;2.30;;
39750;SDS011;37579;51.074;17.004;2023-08-20T08:18:05;2.63;;;2.42;;
39750;SDS011;37579;51.074;17.004;2023-08-20T08:20:31;2.13;;;2.03;;
39750;SDS011;37579;51.074;17.004;2023-08-20T08:22:59;2.55;;;2.35;;
39750;SDS011;37579;51.074;17.004;2023-08-20T08:25:25;2.25;;;2.10;;
39750;SDS011;37579;51.074;17.004;2023-08-20T08:27:51;1.85;;;1.75;;
39750;SDS011;37579;51.074;17.004;2023-08-20T08:30:17;2.17;;;2.08;;
39750;SDS011;37579;51.074;17.004;2023-08-20T08:32:43;2.22;;;2.13;;
39750;SDS011;37579;51.074;17.004;2023-08-20T08:35:09;2.40;;;2.20;;
39750;SDS011;37579;51.074;17.004;2023-08-20T08:37:35;2.25;;;2.15;;
39750;SDS011;37579;51.074;17.004;2023-08-20T08:40:01;2.08;;;1.98;;
39750;SDS011;37579;51.074;17.004;2023-08-20T08:42:31;2.35;;;2.20;;
39750;SDS011;37579;51.074;17.004;2023-08-20T08:44:59;2.35;;;2.22;;
39750;SDS011;37579;51.074;17.004;2023-08-20T08:47:25;2.53;;;2.33;;
39750;SDS011;37579;51.074;17.004;2023-08-20T08:49:51;2.20;;;2.00;;
39750;SDS011;37579;51.074;17.004;2023-08-20T08:52:18;2.80;;;2.60;;
39750;SDS011;37579;51.074;17.004;2023-08-20T08:54:45;2.00;;;1.90;;
39750;SDS011;37579;51.074;17.004;2023-08-20T08:57:12;2.40;;;2.20;;
39750;SDS011;37579;51.074;17.004;2023-08-20T08:59:38;2.25;;;2.15;;
39750;SDS011;37579;51.074;17.004;2023-08-20T09:02:07;2.50;;;2.30;;
39750;SDS011;37579;51.074;17.004;2023-08-20T09:04:40;1.95;;;1.85;;
39750;SDS011;37579;51.074;17.004;2023-08-20T09:07:10;2.13;;;1.98;;
39750;SDS011;37579;51.074;17.004;2023-08-20T09:09:37;2.05;;;1.95;;
39750;SDS011;37579;51.074;17.004;2023-08-20T09:12:17;2.33;;;2.13;;
39750;SDS011;37579;51.074;17.004;2023-08-20T09:14:51;2.38;;;2.17;;
39750;SDS011;37579;51.074;17.004;2023-08-20T09:17:19;2.08;;;1.98;;
39750;SDS011;37579;51.074;17.004;2023-08-20T09:19:46;1.95;;;1.85;;
39750;SDS011;37579;51.074;17.004;2023-08-20T09:22:12;2.00;;;1.90;;
39750;SDS011;37579;51.074;17.004;2023-08-20T09:24:39;2.00;;;1.90;;
39750;SDS011;37579;51.074;17.004;2023-08-20T09:27:09;2.08;;;1.98;;
39750;SDS011;37579;51.074;17.004;2023-08-20T09:29:45;2.53;;;2.33;;
39750;SDS011;37579;51.074;17.004;2023-08-20T09:32:13;2.40;;;2.20;;
39750;SDS011;37579;51.074;17.004;2023-08-20T09:34:50;2.08;;;1.95;;
39750;SDS011;37579;51.074;17.004;2023-08-20T09:37:19;2.35;;;2.15;;
39750;SDS011;37579;51.074;17.004;2023-08-20T09:39:45;2.20;;;2.00;;
39750;SDS011;37579;51.074;17.004;2023-08-20T09:42:12;2.20;;;2.00;;
39750;SDS011;37579;51.074;17.004;2023-08-20T09:44:41;2.38;;;2.28;;
39750;SDS011;37579;51.074;17.004;2023-08-20T09:47:09;2.17;;;2.05;;
39750;SDS011;37579;51.074;17.004;2023-08-20T09:49:40;2.38;;;2.17;;
39750;SDS011;37579;51.074;17.004;2023-08-20T09:52:11;2.25;;;2.05;;
39750;SDS011;37579;51.074;17.004;2023-08-20T09:55:22;2.20;;;2.03;;
39750;SDS011;37579;51.074;17.004;2023-08-20T09:57:41;2.05;;;1.92;;
39750;SDS011;37579;51.074;17.004;2023-08-20T10:00:08;2.30;;;2.10;;
39750;SDS011;37579;51.074;17.004;2023-08-20T10:02:39;2.00;;;1.90;;
39750;SDS011;37579;51.074;17.004;2023-08-20T10:05:06;2.00;;;1.90;;
39750;SDS011;37579;51.074;17.004;2023-08-20T10:07:33;1.80;;;1.70;;
39750;SDS011;37579;51.074;17.004;2023-08-20T10:10:03;2.28;;;2.15;;
39750;SDS011;37579;51.074;17.004;2023-08-20T10:12:31;2.38;;;2.17;;
39750;SDS011;37579;51.074;17.004;2023-08-20T10:14:57;2.28;;;2.13;;
39750;SDS011;37579;51.074;17.004;2023-08-20T10:17:24;2.00;;;1.90;;
39750;SDS011;37579;51.074;17.004;2023-08-20T10:19:53;2.00;;;1.90;;
39750;SDS011;37579;51.074;17.004;2023-08-20T10:22:19;2.35;;;2.15;;
39750;SDS011;37579;51.074;17.004;2023-08-20T10:27:28;2.03;;;1.92;;
39750;SDS011;37579;51.074;17.004;2023-08-20T10:30:00;2.28;;;2.08;;
39750;SDS011;37579;51.074;17.004;2023-08-20T10:32:43;2.33;;;2.13;;
39750;SDS011;37579;51.074;17.004;2023-08-20T10:35:14;2.10;;;2.00;;
39750;SDS011;37579;51.074;17.004;2023-08-20T10:38:00;2.03;;;1.92;;
39750;SDS011;37579;51.074;17.004;2023-08-20T10:43:35;1.98;;;1.88;;
39750;SDS011;37579;51.074;17.004;2023-08-20T10:48:47;1.90;;;1.80;;
39750;SDS011;37579;51.074;17.004;2023-08-20T10:51:17;1.88;;;1.77;;
39750;SDS011;37579;51.074;17.004;2023-08-20T10:56:43;2.05;;;1.95;;
39750;SDS011;37579;51.074;17.004;2023-08-20T10:59:09;1.92;;;1.83;;
39750;SDS011;37579;51.074;17.004;2023-08-20T11:01:49;2.05;;;1.92;;
39750;SDS011;37579;51.074;17.004;2023-08-20T11:04:16;1.95;;;1.85;;
39750;SDS011;37579;51.074;17.004;2023-08-20T11:06:43;2.40;;;2.20;;
39750;SDS011;37579;51.074;17.004;2023-08-20T11:09:11;2.10;;;2.00;;
39750;SDS011;37579;51.074;17.004;2023-08-20T11:11:37;2.05;;;1.95;;
39750;SDS011;37579;51.074;17.004;2023-08-20T11:14:07;2.00;;;1.90;;
39750;SDS011;37579;51.074;17.004;2023-08-20T11:16:38;2.20;;;2.10;;
39750;SDS011;37579;51.074;17.004;2023-08-20T11:19:04;1.92;;;1.83;;
39750;SDS011;37579;51.074;17.004;2023-08-20T11:21:34;1.92;;;1.83;;
39750;SDS011;37579;51.074;17.004;2023-08-20T11:24:01;1.90;;;1.80;;
39750;SDS011;37579;51.074;17.004;2023-08-20T11:26:27;2.40;;;2.20;;
39750;SDS011;37579;51.074;17.004;2023-08-20T11:28:53;1.80;;;1.70;;
39750;SDS011;37579;51.074;17.004;2023-08-20T11:31:19;2.00;;;1.90;;
39750;SDS011;37579;51.074;17.004;2023-08-20T11:33:45;2.25;;;2.05;;
39750;SDS011;37579;51.074;17.004;2023-08-20T11:36:14;2.45;;;2.25;;
39750;SDS011;37579;51.074;17.004;2023-08-20T11:38:42;2.10;;;2.00;;
39750;SDS011;37579;51.074;17.004;2023-08-20T11:41:13;2.13;;;2.03;;
39750;SDS011;37579;51.074;17.004;2023-08-20T11:43:40;2.17;;;2.08;;
39750;SDS011;37579;51.074;17.004;2023-08-20T11:46:12;2.03;;;1.92;;
39750;SDS011;37579;51.074;17.004;2023-08-20T11:48:57;1.85;;;1.75;;
39750;SDS011;37579;51.074;17.004;2023-08-20T11:51:28;2.00;;;1.90;;
39750;SDS011;37579;51.074;17.004;2023-08-20T11:53:55;1.92;;;1.83;;
39750;SDS011;37579;51.074;17.004;2023-08-20T11:56:22;2.20;;;2.10;;
39750;SDS011;37579;51.074;17.004;2023-08-20T11:58:51;2.38;;;2.17;;
39750;SDS011;37579;51.074;17.004;2023-08-20T12:01:20;2.10;;;1.90;;
39750;SDS011;37579;51.074;17.004;2023-08-20T12:03:46;1.88;;;1.77;;
39750;SDS011;37579;51.074;17.004;2023-08-20T12:06:19;1.90;;;1.80;;
39750;SDS011;37579;51.074;17.004;2023-08-20T12:08:45;1.98;;;1.88;;
39750;SDS011;37579;51.074;17.004;2023-08-20T12:11:12;1.90;;;1.80;;
39750;SDS011;37579;51.074;17.004;2023-08-20T12:13:38;1.95;;;1.80;;
39750;SDS011;37579;51.074;17.004;2023-08-20T12:16:03;2.13;;;2.03;;
39750;SDS011;37579;51.074;17.004;2023-08-20T12:18:30;1.80;;;1.70;;
39750;SDS011;37579;51.074;17.004;2023-08-20T12:20:56;2.00;;;1.90;;
39750;SDS011;37579;51.074;17.004;2023-08-20T12:23:22;1.92;;;1.83;;
39750;SDS011;37579;51.074;17.004;2023-08-20T12:25:51;2.25;;;2.10;;
39750;SDS011;37579;51.074;17.004;2023-08-20T12:28:17;2.10;;;2.00;;
39750;SDS011;37579;51.074;17.004;2023-08-20T12:30:43;2.15;;;1.90;;
39750;SDS011;37579;51.074;17.004;2023-08-20T12:33:10;2.10;;;1.90;;
39750;SDS011;37579;51.074;17.004;2023-08-20T12:35:36;2.08;;;1.92;;
39750;SDS011;37579;51.074;17.004;2023-08-20T12:38:02;2.35;;;2.15;;
39750;SDS011;37579;51.074;17.004;2023-08-20T12:40:29;1.90;;;1.80;;
39750;SDS011;37579;51.074;17.004;2023-08-20T12:42:54;2.00;;;1.90;;
39750;SDS011;37579;51.074;17.004;2023-08-20T12:45:20;2.47;;;2.30;;
39750;SDS011;37579;51.074;17.004;2023-08-20T12:47:46;2.00;;;1.90;;
39750;SDS011;37579;51.074;17.004;2023-08-20T12:50:12;2.05;;;1.95;;
39750;SDS011;37579;51.074;17.004;2023-08-20T12:52:39;1.90;;;1.80;;
39750;SDS011;37579;51.074;17.004;2023-08-20T12:55:05;2.30;;;2.10;;
39750;SDS011;37579;51.074;17.004;2023-08-20T12:57:33;2.17;;;2.08;;
39750;SDS011;37579;51.074;17.004;2023-08-20T12:59:59;2.10;;;2.00;;
39750;SDS011;37579;51.074;17.004;2023-08-20T13:02:25;1.58;;;1.48;;
39750;SDS011;37579;51.074;17.004;2023-08-20T13:04:52;1.83;;;1.73;;
39750;SDS011;37579;51.074;17.004;2023-08-20T13:07:18;2.00;;;1.90;;
39750;SDS011;37579;51.074;17.004;2023-08-20T13:09:44;1.52;;;1.42;;
39750;SDS011;37579;51.074;17.004;2023-08-20T13:12:10;2.05;;;1.95;;
39750;SDS011;37579;51.074;17.004;2023-08-20T13:14:40;1.83;;;1.73;;
39750;SDS011;37579;51.074;17.004;2023-08-20T13:17:07;1.75;;;1.65;;
39750;SDS011;37579;51.074;17.004;2023-08-20T13:19:33;1.70;;;1.60;;
39750;SDS011;37579;51.074;17.004;2023-08-20T13:21:59;1.88;;;1.77;;
39750;SDS011;37579;51.074;17.004;2023-08-20T13:24:24;1.80;;;1.70;;
39750;SDS011;37579;51.074;17.004;2023-08-20T13:26:51;1.85;;;1.75;;
39750;SDS011;37579;51.074;17.004;2023-08-20T13:29:16;2.03;;;1.88;;
39750;SDS011;37579;51.074;17.004;2023-08-20T13:31:42;2.20;;;2.10;;
39750;SDS011;37579;51.074;17.004;2023-08-20T13:34:09;1.98;;;1.80;;
39750;SDS011;37579;51.074;17.004;2023-08-20T13:36:34;2.10;;;2.00;;
39750;SDS011;37579;51.074;17.004;2023-08-20T13:39:00;1.63;;;1.52;;
39750;SDS011;37579;51.074;17.004;2023-08-20T13:41:27;1.90;;;1.80;;
39750;SDS011;37579;51.074;17.004;2023-08-20T13:43:53;1.95;;;1.80;;
39750;SDS011;37579;51.074;17.004;2023-08-20T13:46:18;1.83;;;1.73;;
39750;SDS011;37579;51.074;17.004;2023-08-20T13:48:44;1.95;;;1.85;;
39750;SDS011;37579;51.074;17.004;2023-08-20T13:51:10;1.90;;;1.80;;
39750;SDS011;37579;51.074;17.004;2023-08-20T13:53:36;1.88;;;1.77;;
39750;SDS011;37579;51.074;17.004;2023-08-20T13:56:02;2.10;;;2.00;;
39750;SDS011;37579;51.074;17.004;2023-08-20T13:58:28;1.95;;;1.85;;
39750;SDS011;37579;51.074;17.004;2023-08-20T14:00:54;1.77;;;1.67;;
39750;SDS011;37579;51.074;17.004;2023-08-20T14:03:20;2.03;;;1.92;;
39750;SDS011;37579;51.074;17.004;2023-08-20T14:05:46;2.45;;;2.25;;
39750;SDS011;37579;51.074;17.004;2023-08-20T14:08:12;2.13;;;2.03;;
39750;SDS011;37579;51.074;17.004;2023-08-20T14:10:39;1.70;;;1.60;;
39750;SDS011;37579;51.074;17.004;2023-08-20T14:13:05;1.65;;;1.55;;
39750;SDS011;37579;51.074;17.004;2023-08-20T14:15:31;1.80;;;1.70;;
39750;SDS011;37579;51.074;17.004;2023-08-20T14:17:57;1.65;;;1.55;;
39750;SDS011;37579;51.074;17.004;2023-08-20T14:20:23;1.75;;;1.65;;
39750;SDS011;37579;51.074;17.004;2023-08-20T14:22:49;1.90;;;1.80;;
39750;SDS011;37579;51.074;17.004;2023-08-20T14:25:15;1.60;;;1.50;;
39750;SDS011;37579;51.074;17.004;2023-08-20T14:27:41;1.80;;;1.70;;
39750;SDS011;37579;51.074;17.004;2023-08-20T14:30:07;1.70;;;1.60;;
39750;SDS011;37579;51.074;17.004;2023-08-20T14:32:36;1.85;;;1.75;;
39750;SDS011;37579;51.074;17.004;2023-08-20T14:35:02;1.80;;;1.70;;
39750;SDS011;37579;51.074;17.004;2023-08-20T14:37:29;2.08;;;1.73;;
39750;SDS011;37579;51.074;17.004;2023-08-20T14:39:56;1.90;;;1.80;;
39750;SDS011;37579;51.074;17.004;2023-08-20T14:42:22;1.70;;;1.60;;
39750;SDS011;37579;51.074;17.004;2023-08-20T14:44:47;1.52;;;1.42;;
39750;SDS011;37579;51.074;17.004;2023-08-20T14:47:13;2.15;;;1.95;;
39750;SDS011;37579;51.074;17.004;2023-08-20T14:49:39;1.83;;;1.73;;
39750;SDS011;37579;51.074;17.004;2023-08-20T14:52:05;1.70;;;1.60;;
39750;SDS011;37579;51.074;17.004;2023-08-20T14:54:31;1.58;;;1.48;;
39750;SDS011;37579;51.074;17.004;2023-08-20T14:56:57;2.15;;;2.05;;